Terminal Aerodrome Forecast
Issued by NWS Goodland, KS

Home | Current Version | Previous Version | Text Only | Print | Product List | Glossary On
Versions: 1 2 3 4 5 6 7 8 9 10 11 12 13 14 15 16 17 18 19 20 21 22 23 24
000
FTUS43 KGLD 172020 AAA
TAFGLD
TAF AMD
KGLD 172020Z 1720/1818 17010KT P6SM VCTS SCT050 BKN110CB
      TEMPO 1721/1722 VRB25G35KT P6SM -TSRA BKN110CB
     FM172300 16007KT P6SM SCT110 SCT250
     FM180000 15009KT P6SM SCT250=

USA.gov is the U.S. government's official web portal to all federal, state and local government web resources and services.